Serval — J8B4154 — position and weather

sailwx.info

Track history (hours):
 
Tides and Currents Weather Stations Pressure Air Temp Water Temp Dewpoint Dewpoint Depression Visibility Wind Speed Wind Dir Waves Ship Positions

Serval

Last reported at 2014-Jul-24 12:10 UTC. Time now 2014-Jul-24 15:29 UTC.
Position N 53°57' E 006°24'.

Length 30 m; draft 4.9 m.

Type: . MMSI: 377103000.

Date/timePositionNaut miles runAvg speedWind from/ knotsBaromVisibWave heightAir tempDewpointWater temp
2014-Jul-24 12:10N 53°57' E 006°24'1 2.0
2014-Jul-24 11:32N 53°57' E 006°26'2 2.0
2014-Jul-24 10:20N 53°59' E 006°23'1 0.6
2014-Jul-24 09:15N 53°59' E 006°24'1 0.5
2014-Jul-24 07:17N 53°58' E 006°26'1 1.1
2014-Jul-24 06:31N 53°59' E 006°27'2 0.5
2014-Jul-24 02:19N 53°57' E 006°24'1 0.4
2014-Jul-24 00:28N 53°57' E 006°23'1 1.5
2014-Jul-23 23:31N 53°58' E 006°25'1 0.3
2014-Jul-23 18:31N 53°59' E 006°27'3 1.3
2014-Jul-23 16:24N 53°58' E 006°22'1 0.2
2014-Jul-23 13:32N 53°58' E 006°21'1 0.8
2014-Jul-23 12:33N 53°58' E 006°23'2 2.2
2014-Jul-23 11:32N 53°57' E 006°26'0 0.4
2014-Jul-23 10:32N 53°57' E 006°26'1 0.8
2014-Jul-23 09:31N 53°57' E 006°27'1 0.9
2014-Jul-23 08:33N 53°58' E 006°27'1 0.9
2014-Jul-23 07:33N 53°57' E 006°26'1 1.1
2014-Jul-23 06:29N 53°59' E 006°26'0 0.2
2014-Jul-23 05:21N 53°58' E 006°26'0 0.3
2014-Jul-23 04:27N 53°58' E 006°26'1 0.3
2014-Jul-23 01:07N 53°58' E 006°24'1 0.3
2014-Jul-22 21:33N 53°58' E 006°22'1 1.4
2014-Jul-22 20:33N 53°58' E 006°24'1 1.1
2014-Jul-22 19:33N 53°58' E 006°26'1 0.8
2014-Jul-22 18:33N 53°58' E 006°27'0 0.4
2014-Jul-22 17:28N 53°58' E 006°27'2 0.8
2014-Jul-22 15:16N 53°58' E 006°25'2 2.2
2014-Jul-22 14:33N 53°58' E 006°22'1 0.8
2014-Jul-22 13:33N 53°57' E 006°22'1 0.6
2014-Jul-22 12:27N 53°57' E 006°23'2 1.3
2014-Jul-22 11:15N 53°58' E 006°26'2 0.0
2014-Jul-20 20:32N 53°59' E 006°23'1 0.6
2014-Jul-20 19:23N 53°59' E 006°22'1 0.8
2014-Jul-20 18:32N 53°59' E 006°23'1 0.1
2014-Jul-20 01:17N 53°58' E 006°25'1 1.9
2014-Jul-20 00:32N 53°58' E 006°23'1 0.5
2014-Jul-19 23:23N 53°58' E 006°23'1 0.6
2014-Jul-19 22:29N 53°58' E 006°24'1 1.6
2014-Jul-19 21:33N 53°59' E 006°22'2 0.8
2014-Jul-19 19:18N 53°57' E 006°24'2 0.2
2014-Jul-19 10:27N 53°59' E 006°26'1 0.6
2014-Jul-19 09:33N 53°58' E 006°26'2 2.2
2014-Jul-19 08:33N 53°57' E 006°23'1 0.4
2014-Jul-19 06:28N 53°58' E 006°22'3 0.8
2014-Jul-19 03:10N 53°57' E 006°26'0 0.6
2014-Jul-19 02:22N 53°58' E 006°26'1 0.7
2014-Jul-19 01:14N 53°58' E 006°25'1 0.7
2014-Jul-19 00:30N 53°58' E 006°26'0 0.4
2014-Jul-18 23:32N 53°58' E 006°26'0 0.4
2014-Jul-18 22:31N 53°58' E 006°26'1 0.2
2014-Jul-18 18:32N 53°59' E 006°26'2 1.6
2014-Jul-18 17:19N 53°58' E 006°22'1 0.7
2014-Jul-18 16:33N 53°58' E 006°23'2 1.6
2014-Jul-18 15:24N 53°58' E 006°26'1 0.7
2014-Jul-18 14:29N 53°57' E 006°27'0 0.2
2014-Jul-18 13:27N 53°57' E 006°27'2 0.6
2014-Jul-18 10:17N 53°58' E 006°24'2 0.6
2014-Jul-18 06:32N 53°59' E 006°20'3 0.9
2014-Jul-18 02:31N 53°58' E 006°26'1 0.9
2014-Jul-18 01:05N 53°58' E 006°24'2 2.6
2014-Jul-18 00:24N 53°58' E 006°27'3 0.9
2014-Jul-17 21:24N 53°59' E 006°23'0 0.0
2014-Jul-17 11:26N 53°59' E 006°23'1 0.5
2014-Jul-17 10:27N 53°59' E 006°24'1 0.1
2014-Jul-17 04:11N 53°59' E 006°23'0 0.2
2014-Jul-17 03:27N 53°59' E 006°23'1 0.6
2014-Jul-17 01:33N 53°58' E 006°25'1 0.3
2014-Jul-16 23:19N 53°58' E 006°26'1 1.1
2014-Jul-16 22:26N 53°58' E 006°24'1 1.6
2014-Jul-16 21:32N 53°59' E 006°24'0 0.5
2014-Jul-16 20:32N 53°59' E 006°23'  
Track history (hours):
 
Tides and Currents Weather Stations Pressure Air Temp Water Temp Dewpoint Dewpoint Depression Visibility Wind Speed Wind Dir Waves Ship Positions

Serval

Last reported at 2014-Jul-24 12:10 UTC. Time now 2014-Jul-24 15:29 UTC.
Position N 53°57' E 006°24'.

Length 30 m; draft 4.9 m.

Type: . MMSI: 377103000.

Date/timePositionNaut miles runAvg speedWind from/ knotsBaromVisibWave heightAir tempDewpointWater temp
2014-Jul-24 12:10N 53°57' E 006°24'1 2.0
2014-Jul-24 11:32N 53°57' E 006°26'2 2.0
2014-Jul-24 10:20N 53°59' E 006°23'1 0.6
2014-Jul-24 09:15N 53°59' E 006°24'1 0.5
2014-Jul-24 07:17N 53°58' E 006°26'1 1.1
2014-Jul-24 06:31N 53°59' E 006°27'2 0.5
2014-Jul-24 02:19N 53°57' E 006°24'1 0.4
2014-Jul-24 00:28N 53°57' E 006°23'1 1.5
2014-Jul-23 23:31N 53°58' E 006°25'1 0.3
2014-Jul-23 18:31N 53°59' E 006°27'3 1.3
2014-Jul-23 16:24N 53°58' E 006°22'1 0.2
2014-Jul-23 13:32N 53°58' E 006°21'1 0.8
2014-Jul-23 12:33N 53°58' E 006°23'2 2.2
2014-Jul-23 11:32N 53°57' E 006°26'0 0.4
2014-Jul-23 10:32N 53°57' E 006°26'1 0.8
2014-Jul-23 09:31N 53°57' E 006°27'1 0.9
2014-Jul-23 08:33N 53°58' E 006°27'1 0.9
2014-Jul-23 07:33N 53°57' E 006°26'1 1.1
2014-Jul-23 06:29N 53°59' E 006°26'0 0.2
2014-Jul-23 05:21N 53°58' E 006°26'0 0.3
2014-Jul-23 04:27N 53°58' E 006°26'1 0.3
2014-Jul-23 01:07N 53°58' E 006°24'1 0.3
2014-Jul-22 21:33N 53°58' E 006°22'1 1.4
2014-Jul-22 20:33N 53°58' E 006°24'1 1.1
2014-Jul-22 19:33N 53°58' E 006°26'1 0.8
2014-Jul-22 18:33N 53°58' E 006°27'0 0.4
2014-Jul-22 17:28N 53°58' E 006°27'2 0.8
2014-Jul-22 15:16N 53°58' E 006°25'2 2.2
2014-Jul-22 14:33N 53°58' E 006°22'1 0.8
2014-Jul-22 13:33N 53°57' E 006°22'1 0.6
2014-Jul-22 12:27N 53°57' E 006°23'2 1.3
2014-Jul-22 11:15N 53°58' E 006°26'2 0.0
2014-Jul-20 20:32N 53°59' E 006°23'1 0.6
2014-Jul-20 19:23N 53°59' E 006°22'1 0.8
2014-Jul-20 18:32N 53°59' E 006°23'1 0.1
2014-Jul-20 01:17N 53°58' E 006°25'1 1.9
2014-Jul-20 00:32N 53°58' E 006°23'1 0.5
2014-Jul-19 23:23N 53°58' E 006°23'1 0.6
2014-Jul-19 22:29N 53°58' E 006°24'1 1.6
2014-Jul-19 21:33N 53°59' E 006°22'2 0.8
2014-Jul-19 19:18N 53°57' E 006°24'2 0.2
2014-Jul-19 10:27N 53°59' E 006°26'1 0.6
2014-Jul-19 09:33N 53°58' E 006°26'2 2.2
2014-Jul-19 08:33N 53°57' E 006°23'1 0.4
2014-Jul-19 06:28N 53°58' E 006°22'3 0.8
2014-Jul-19 03:10N 53°57' E 006°26'0 0.6
2014-Jul-19 02:22N 53°58' E 006°26'1 0.7
2014-Jul-19 01:14N 53°58' E 006°25'1 0.7
2014-Jul-19 00:30N 53°58' E 006°26'0 0.4
2014-Jul-18 23:32N 53°58' E 006°26'0 0.4
2014-Jul-18 22:31N 53°58' E 006°26'1 0.2
2014-Jul-18 18:32N 53°59' E 006°26'2 1.6
2014-Jul-18 17:19N 53°58' E 006°22'1 0.7
2014-Jul-18 16:33N 53°58' E 006°23'2 1.6
2014-Jul-18 15:24N 53°58' E 006°26'1 0.7
2014-Jul-18 14:29N 53°57' E 006°27'0 0.2
2014-Jul-18 13:27N 53°57' E 006°27'2 0.6
2014-Jul-18 10:17N 53°58' E 006°24'2 0.6
2014-Jul-18 06:32N 53°59' E 006°20'3 0.9
2014-Jul-18 02:31N 53°58' E 006°26'1 0.9
2014-Jul-18 01:05N 53°58' E 006°24'2 2.6
2014-Jul-18 00:24N 53°58' E 006°27'3 0.9
2014-Jul-17 21:24N 53°59' E 006°23'0 0.0
2014-Jul-17 11:26N 53°59' E 006°23'1 0.5
2014-Jul-17 10:27N 53°59' E 006°24'1 0.1
2014-Jul-17 04:11N 53°59' E 006°23'0 0.2
2014-Jul-17 03:27N 53°59' E 006°23'1 0.6
2014-Jul-17 01:33N 53°58' E 006°25'1 0.3
2014-Jul-16 23:19N 53°58' E 006°26'1 1.1
2014-Jul-16 22:26N 53°58' E 006°24'1 1.6
2014-Jul-16 21:32N 53°59' E 006°24'0 0.5
2014-Jul-16 20:32N 53°59' E 006°23'  

Dump ship's entire track history